Northwest Florida Beaches International Airport

KECP · 佛罗里达州, 美国

罗盘
风向 的 风向 360° Northwest Florida Beaches International Airport 16/34
风: 5 kt, 2 beaufort

5 kt

2 kt
改变
0 ft 1.000 2.000 3.000 4.000 5.000
没有云
METAR KECP 131453Z 36005KT 10SM CLR 23/04 A3032 RMK AO1 SLP279 T02280039 53012

METAR Northwest Florida Beaches International Airport - KECP/ECP

Northwest Florida Beaches International Airport是,美国中的大型机场。 该机场位于纬度30,35824和经度-85,79560。 该机场有一条跑道: 16/34. 本场的ICAO机场代码为KECP。 该机场的本地机场标识(FAA LID)为ECP。 该机场的IATA代码为ECP。 机场在Jacksonville FIR中。

该航空气象观测是针对Northwest Florida Beaches International Airport在2024年4月13日 09:53, 当地时间进行的。

机场观察

风向为360°,速度为5 kt。

可见度为10 mi。

有没有云。 没有观察到天花板。

温度和风寒是23 °C。 露点为4 °C,相对湿度为29%。 海平面上的气压为30,32 inHg (QNH)。

白天

今天,太阳从06:17升起,在19:09降落。 这适用于Northwest Florida Beaches International Airport,世界夏令时可能有所不同。 当地时间与世界标准时间之间的时差为-5 小时。 夏令时目前正在进行中。

公司介绍

我们没有关于这个机场的公司信息。

体会

到Vliegles.nl去找飞行课程,跳伞和其他飞行体验。 浏览页面,了解Northwest Florida Beaches International Airport附近所有可用的活动。 你也可以使用搜索功能来寻找你所在地附近的特定飞行课程、跳伞或其他飞行体验。

跑道

Id 标题 侧风 逆风 侧风 %
16/34 159°-339° 2 kt 5 kt 36 %

逆风成分最大的方向会被突出显示,并用于横风计算。 这并不一定意味着这个方向在使用。

乌云

- CLR 没有云

温度 & 天气

温度 22,8 °C
露点 3,9 °C
相对湿度 29%
Kp-index 0 (0-9)

评论

AO1自动气象站无法确定降水类型
SLP279海平面压力为30,35 inHg (30,35 inHg)
T02280039温度为22,8 °C (73,0 °F),露点为3,9 °C (39,0 °F)
53012

白天

日出
06:17
中午
12:43
日落
19:09 (8:34)

小工具

你想在你的网站上有一个关于Northwest Florida Beaches International Airport的当前航空天气(METAR)的小部件吗?

显示HTML代码
报告变更